Time;durP1;ratioP1;P1;durP2;ratioP2;P2;SDS_P1;SDS_P2;PMS_P1;PMS_P2;Temp;Humidity;BMP_temperature;BMP_pressure;BME280_temperature;BME280_humidity;BME280_pressure;Samples;Min_cycle;Max_cycle;Signal;HPM_P1;HPM_P2
2023/11/12 00:01:51;;;;;;;;;41.75;35.00;;;;;12.58;100.00;97448.72;6165375;28;96488;-70
2023/11/12 00:04:55;;;;;;;;;41.60;35.00;;;;;12.65;100.00;97455.75;6162647;28;96775;-71
2023/11/12 00:07:58;;;;;;;;;42.50;36.00;;;;;12.64;100.00;97456.81;6164714;28;96433;-70
2023/11/12 00:11:02;;;;;;;;;46.00;36.00;;;;;12.61;100.00;97463.56;6180309;28;96631;-70
2023/11/12 00:14:07;;;;;;;;;42.20;35.60;;;;;12.61;100.00;97454.66;6162690;28;96704;-71
2023/11/12 00:17:12;;;;;;;;;43.00;36.00;;;;;12.60;100.00;97448.44;6158110;28;97218;-70
2023/11/12 00:20:17;;;;;;;;;49.00;41.00;;;;;12.65;100.00;97461.16;6156411;28;96439;-72
2023/11/12 00:23:23;;;;;;;;;50.00;40.60;;;;;12.65;100.00;97466.56;6140079;28;96463;-72
2023/11/12 00:26:28;;;;;;;;;52.00;40.00;;;;;12.64;100.00;97468.44;6140387;28;96899;-72
2023/11/12 00:29:34;;;;;;;;;49.00;39.00;;;;;12.68;100.00;97466.81;6140374;28;97006;-72
2023/11/12 00:32:37;;;;;;;;;50.80;42.40;;;;;12.64;100.00;97467.63;6140515;28;97462;-72
2023/11/12 00:35:41;;;;;;;;;51.60;41.40;;;;;12.65;100.00;97469.25;6138478;28;97743;-72
2023/11/12 00:38:44;;;;;;;;;51.50;41.50;;;;;12.64;100.00;97473.03;6156839;28;97829;-72
2023/11/12 00:41:47;;;;;;;;;54.75;43.25;;;;;12.70;100.00;97480.91;6170188;28;96606;-72
2023/11/12 00:44:53;;;;;;;;;56.00;44.00;;;;;12.69;100.00;97473.88;6170560;28;98891;-72
2023/11/12 00:47:58;;;;;;;;;53.00;43.40;;;;;12.74;100.00;97481.16;6191866;28;96855;-72
2023/11/12 00:51:01;;;;;;;;;55.25;44.00;;;;;12.75;100.00;97490.91;6184849;28;97692;-71
2023/11/12 00:54:05;;;;;;;;;49.00;41.00;;;;;12.78;100.00;97487.66;6170935;28;97760;-72
2023/11/12 00:57:09;;;;;;;;;55.00;44.40;;;;;12.82;100.00;97486.03;6186350;28;96548;-72
2023/11/12 01:00:15;;;;;;;;;57.00;44.60;;;;;12.88;100.00;97487.66;6184741;28;97733;-71
2023/11/12 01:03:18;;;;;;;;;57.25;44.50;;;;;12.92;100.00;97496.84;6184745;28;97857;-71
2023/11/12 01:06:22;;;;;;;;;53.80;44.00;;;;;12.91;100.00;97487.91;6186866;28;97062;-71
2023/11/12 01:09:26;;;;;;;;;58.50;46.00;;;;;12.84;100.00;97500.09;6169247;28;97356;-71
2023/11/12 01:12:30;;;;;;;;;57.40;46.00;;;;;12.85;100.00;97499.03;6177289;28;97647;-71
2023/11/12 01:15:35;;;;;;;;;58.60;46.00;;;;;12.90;100.00;97504.44;6163527;28;96880;-72
2023/11/12 01:18:40;;;;;;;;;58.00;46.40;;;;;12.97;100.00;97494.97;6161892;28;96873;-72
2023/11/12 01:21:44;;;;;;;;;57.00;46.00;;;;;12.95;100.00;97494.41;6160750;28;99531;-72
2023/11/12 01:24:47;;;;;;;;;57.75;46.00;;;;;12.94;100.00;97502.81;6163491;28;96372;-72
2023/11/12 01:27:50;;;;;;;;;57.25;46.00;;;;;12.95;100.00;97502.53;6160894;28;96425;-71
2023/11/12 01:30:55;;;;;;;;;61.40;49.20;;;;;12.95;100.00;97505.22;6164619;28;97165;-70
2023/11/12 01:33:59;;;;;;;;;57.60;46.00;;;;;12.92;100.00;97500.38;6186725;28;96815;-71
2023/11/12 01:37:03;;;;;;;;;58.50;47.00;;;;;12.92;100.00;97503.06;6170071;28;97649;-71
2023/11/12 01:40:08;;;;;;;;;61.60;48.80;;;;;12.95;100.00;97507.16;6184704;28;96531;-70
2023/11/12 01:43:11;;;;;;;;;57.60;47.00;;;;;12.96;100.00;97501.44;6178490;28;96997;-71
2023/11/12 01:46:18;;;;;;;;;56.50;45.00;;;;;12.95;100.00;97515.25;6178181;28;96872;-71
2023/11/12 01:49:22;;;;;;;;;62.00;48.40;;;;;12.90;100.00;97516.03;6144955;28;98855;-70
2023/11/12 01:52:26;;;;;;;;;59.60;46.00;;;;;12.80;100.00;97509.84;6162490;28;96574;-70
2023/11/12 01:55:30;;;;;;;;;59.50;47.75;;;;;12.76;100.00;97514.13;6177276;28;96954;-70
2023/11/12 01:58:33;;;;;;;;;64.40;49.60;;;;;12.77;100.00;97515.78;6160115;28;96882;-71
2023/11/12 02:01:39;;;;;;;;;61.00;48.00;;;;;12.76;100.00;97514.94;6185753;22;97060;-69
2023/11/12 02:04:42;;;;;;;;;60.00;48.00;;;;;12.80;100.00;97518.78;6143362;28;97166;-71
2023/11/12 02:07:47;;;;;;;;;63.00;51.00;;;;;12.74;100.00;97514.44;6128410;28;99307;-71
2023/11/12 02:10:51;;;;;;;;;61.60;48.20;;;;;12.76;100.00;97519.53;6125111;28;96336;-71
2023/11/12 02:13:56;;;;;;;;;60.00;47.75;;;;;12.75;100.00;97529.59;6137261;28;97288;-71
2023/11/12 02:17:01;;;;;;;;;64.00;49.00;;;;;12.69;100.00;97521.72;6137467;28;96408;-71
2023/11/12 02:20:07;;;;;;;;;60.80;48.00;;;;;12.71;100.00;97527.66;6120564;28;96500;-71
2023/11/12 02:23:14;;;;;;;;;62.00;48.00;;;;;12.67;100.00;97524.69;6137717;28;97856;-71
2023/11/12 02:26:20;;;;;;;;;62.00;48.00;;;;;12.65;100.00;97524.16;6137214;28;96348;-71
2023/11/12 02:29:23;;;;;;;;;60.20;47.20;;;;;12.66;100.00;97527.66;6137829;28;96440;-71
2023/11/12 02:32:31;;;;;;;;;60.80;46.60;;;;;12.63;100.00;97526.28;6135332;28;96268;-70
2023/11/12 02:35:36;;;;;;;;;61.00;49.00;;;;;12.71;100.00;97528.47;6144208;28;96598;-71
2023/11/12 02:38:40;;;;;;;;;61.60;48.20;;;;;12.65;100.00;97532.25;6145195;28;96910;-71
2023/11/12 02:41:45;;;;;;;;;60.00;46.00;;;;;12.63;100.00;97534.41;6162528;28;96317;-66
2023/11/12 02:44:48;;;;;;;;;57.00;45.20;;;;;12.64;100.00;97530.63;6144295;28;96868;-66
2023/11/12 02:47:51;;;;;;;;;61.00;48.00;;;;;12.57;100.00;97536.28;6140539;28;96770;-66
2023/11/12 02:50:55;;;;;;;;;56.80;45.00;;;;;12.59;100.00;97536.03;6103084;28;97096;-67
2023/11/12 02:53:58;;;;;;;;;57.00;46.00;;;;;12.50;100.00;97534.94;6136571;28;96390;-66
2023/11/12 02:57:03;;;;;;;;;55.00;44.80;;;;;12.57;100.00;97551.69;6136412;28;96375;-66
2023/11/12 03:00:08;;;;;;;;;58.00;45.80;;;;;12.57;100.00;97546.28;6136390;28;96466;-67
2023/11/12 03:03:12;;;;;;;;;52.75;43.75;;;;;12.45;100.00;97557.34;6126099;28;96547;-67
2023/11/12 03:06:16;;;;;;;;;53.50;43.00;;;;;12.50;100.00;97551.16;6113235;28;96997;-66
2023/11/12 03:09:20;;;;;;;;;56.75;45.00;;;;;12.51;100.00;97550.88;6115182;28;96939;-67
2023/11/12 03:12:25;;;;;;;;;51.00;42.00;;;;;12.45;100.00;97549.25;6127838;28;96530;-67
2023/11/12 03:15:28;;;;;;;;;55.00;43.80;;;;;12.42;100.00;97551.66;6122950;28;96745;-67
2023/11/12 03:18:31;;;;;;;;;54.50;43.50;;;;;12.36;100.00;97560.84;6138318;28;97249;-67
2023/11/12 03:21:35;;;;;;;;;50.00;41.00;;;;;12.30;100.00;97560.00;6131700;28;96462;-66
2023/11/12 03:24:38;;;;;;;;;52.00;43.00;;;;;12.28;100.00;97566.72;6116356;28;96375;-66
2023/11/12 03:27:43;;;;;;;;;53.00;42.00;;;;;12.16;100.00;97575.09;6117517;28;96900;-67
2023/11/12 03:30:47;;;;;;;;;50.25;41.00;;;;;12.18;100.00;97572.91;6116314;28;96658;-67
2023/11/12 03:33:50;;;;;;;;;50.00;41.75;;;;;12.20;100.00;97569.97;6117541;28;96971;-66
2023/11/12 03:36:54;;;;;;;;;53.40;43.00;;;;;12.18;100.00;97572.91;6115477;28;98438;-66
2023/11/12 03:39:57;;;;;;;;;49.00;41.60;;;;;12.05;100.00;97576.09;6115297;28;98654;-66
2023/11/12 03:43:02;;;;;;;;;48.33;40.00;;;;;12.07;100.00;97574.75;6116086;28;96486;-66
2023/11/12 03:46:06;;;;;;;;;50.00;40.25;;;;;12.10;100.00;97573.44;6116355;28;96398;-67
2023/11/12 03:49:10;;;;;;;;;50.00;41.00;;;;;12.11;100.00;97575.06;6099473;28;96867;-71
2023/11/12 03:52:13;;;;;;;;;50.00;39.00;;;;;12.04;100.00;97560.97;6115711;28;96869;-71
2023/11/12 03:55:16;;;;;;;;;50.40;40.40;;;;;12.11;100.00;97578.56;6091065;28;96874;-70
2023/11/12 03:58:21;;;;;;;;;44.60;38.00;;;;;12.12;100.00;97576.66;6107021;28;96373;-70
2023/11/12 04:01:26;;;;;;;;;45.40;39.00;;;;;12.13;100.00;97567.47;6137211;28;96829;-70
2023/11/12 04:04:30;;;;;;;;;42.00;35.00;;;;;12.04;100.00;97574.47;6146410;28;96691;-70
2023/11/12 04:07:33;;;;;;;;;45.40;37.60;;;;;12.07;100.00;97576.66;6129904;28;96674;-71
2023/11/12 04:10:37;;;;;;;;;48.00;37.75;;;;;12.12;100.00;97574.78;6147547;28;96256;-71
2023/11/12 04:13:41;;;;;;;;;46.67;38.00;;;;;12.13;100.00;97576.41;6162631;28;96328;-71
2023/11/12 04:16:45;;;;;;;;;44.20;36.20;;;;;12.09;100.00;97574.50;6164666;28;96321;-71
2023/11/12 04:19:50;;;;;;;;;38.80;33.00;;;;;12.09;100.00;97577.19;6164315;28;96874;-71
2023/11/12 04:22:53;;;;;;;;;39.00;34.00;;;;;12.12;100.00;97588.28;6164853;28;97445;-71
2023/11/12 04:25:57;;;;;;;;;41.60;35.20;;;;;12.09;100.00;97588.81;6129276;28;96556;-71
2023/11/12 04:29:06;;;;;;;;;37.00;32.00;;;;;12.14;100.00;97583.44;6137937;28;96233;-71
2023/11/12 04:32:10;;;;;;;;;43.00;36.00;;;;;12.10;100.00;97578.81;6140483;28;96461;-71
2023/11/12 04:35:13;;;;;;;;;41.20;35.00;;;;;12.03;100.00;97589.84;6139091;28;96556;-71
2023/11/12 04:38:17;;;;;;;;;37.75;33.00;;;;;12.06;100.00;97594.75;6140463;28;96555;-71
2023/11/12 04:41:20;;;;;;;;;34.40;32.00;;;;;12.06;100.00;97597.47;6144241;28;97350;-70
2023/11/12 04:44:25;;;;;;;;;33.00;30.00;;;;;12.10;100.00;97606.66;6164794;28;96442;-71
2023/11/12 04:47:28;;;;;;;;;35.00;30.20;;;;;12.12;100.00;97598.28;6126000;28;96881;-71
2023/11/12 04:50:32;;;;;;;;;28.00;26.00;;;;;12.16;100.00;97612.91;6134954;28;96430;-70
2023/11/12 04:53:37;;;;;;;;;26.60;25.20;;;;;12.08;100.00;97602.56;6160235;28;97097;-71
2023/11/12 04:56:46;;;;;;;;;26.75;24.75;;;;;12.08;100.00;97622.31;6138211;28;98440;-71
2023/11/12 04:59:50;;;;;;;;;25.00;24.40;;;;;12.13;100.00;97624.22;6138640;28;96336;-68
2023/11/12 05:02:54;;;;;;;;;26.80;24.80;;;;;12.10;100.00;97630.16;6141508;28;96757;-66
2023/11/12 05:05:58;;;;;;;;;20.50;19.50;;;;;12.13;100.00;97630.44;6162620;28;96367;-67
2023/11/12 05:09:01;;;;;;;;;24.50;22.00;;;;;12.14;100.00;97637.47;6132227;28;96938;-66
2023/11/12 05:12:05;;;;;;;;;22.00;20.60;;;;;12.00;100.00;97646.31;6114556;28;97199;-66
2023/11/12 05:15:10;;;;;;;;;19.80;18.80;;;;;11.94;100.00;97648.16;6115233;28;98192;-66
2023/11/12 05:18:14;;;;;;;;;23.00;23.00;;;;;11.99;100.00;97650.06;6140012;28;96517;-67
2023/11/12 05:21:18;;;;;;;;;22.40;21.00;;;;;12.07;100.00;97653.09;6123225;28;98461;-66
2023/11/12 05:24:22;;;;;;;;;23.00;21.00;;;;;12.06;100.00;97654.19;6147928;28;96382;-66
2023/11/12 05:27:25;;;;;;;;;26.20;24.60;;;;;12.00;100.00;97666.03;6153392;28;96363;-67
2023/11/12 05:30:30;;;;;;;;;21.20;20.00;;;;;12.00;100.00;97667.91;6127286;28;96620;-66
2023/11/12 05:33:34;;;;;;;;;21.20;20.20;;;;;11.90;100.00;97659.72;6131082;28;99362;-67
2023/11/12 05:36:39;;;;;;;;;21.60;20.60;;;;;11.91;100.00;97659.47;6123843;28;96714;-67
2023/11/12 05:39:43;;;;;;;;;25.00;23.00;;;;;11.85;100.00;97665.91;6134976;28;98520;-66
2023/11/12 05:42:46;;;;;;;;;20.00;18.00;;;;;11.87;100.00;97663.78;6162069;28;96995;-67
2023/11/12 05:45:51;;;;;;;;;17.00;16.00;;;;;11.85;100.00;97665.91;6163700;28;96375;-67
2023/11/12 05:48:54;;;;;;;;;18.00;17.00;;;;;11.76;100.00;97667.47;6139776;28;98532;-66
2023/11/12 05:51:58;;;;;;;;;17.00;16.00;;;;;11.75;100.00;97673.94;6116586;28;97667;-66
2023/11/12 05:55:01;;;;;;;;;19.60;16.80;;;;;11.71;100.00;97683.59;6161445;28;96337;-67
2023/11/12 05:58:04;;;;;;;;;21.20;19.00;;;;;11.64;100.00;97673.00;6127521;28;96726;-67
2023/11/12 06:01:09;;;;;;;;;16.80;15.80;;;;;11.52;100.00;97676.97;6117063;28;99334;-67
2023/11/12 06:04:12;;;;;;;;;16.60;16.00;;;;;11.55;100.00;97681.84;6137618;28;96870;-66
2023/11/12 06:07:15;;;;;;;;;20.80;19.80;;;;;11.53;100.00;97692.88;6137546;28;96323;-66
2023/11/12 06:10:19;;;;;;;;;18.75;18.00;;;;;11.38;100.00;97700.06;6120445;28;96878;-71
2023/11/12 06:13:22;;;;;;;;;17.00;16.00;;;;;11.39;100.00;97698.97;6138784;28;97510;-72
2023/11/12 06:16:26;;;;;;;;;15.00;15.00;;;;;11.22;100.00;97694.50;6137450;28;97151;-72
2023/11/12 06:19:30;;;;;;;;;17.00;16.75;;;;;11.23;100.00;97709.63;6138553;28;96468;-72
2023/11/12 06:22:33;;;;;;;;;18.00;17.00;;;;;11.18;100.00;97709.56;6122599;28;97295;-71
2023/11/12 06:25:37;;;;;;;;;17.00;17.00;;;;;11.24;100.00;97715.81;6136787;28;96500;-71
2023/11/12 06:28:40;;;;;;;;;17.67;17.00;;;;;11.33;100.00;97716.19;6118548;28;98692;-71
2023/11/12 06:31:45;;;;;;;;;17.00;15.00;;;;;11.34;100.00;97725.91;6137250;28;96293;-72
2023/11/12 06:34:48;;;;;;;;;18.00;17.00;;;;;11.25;100.00;97718.25;6120507;28;97024;-71
2023/11/12 06:37:51;;;;;;;;;19.00;18.00;;;;;11.17;100.00;97712.50;6120323;28;96728;-72
2023/11/12 06:40:54;;;;;;;;;15.50;13.75;;;;;11.17;100.00;97734.09;6139668;28;97117;-72
2023/11/12 06:43:57;;;;;;;;;12.50;12.00;;;;;11.19;100.00;97726.56;6142398;28;96657;-72
2023/11/12 06:47:03;;;;;;;;;17.60;16.00;;;;;11.09;100.00;97738.03;6140778;28;100173;-72
2023/11/12 06:50:07;;;;;;;;;19.00;17.00;;;;;11.00;100.00;97736.03;6142149;28;96994;-72
2023/11/12 06:53:10;;;;;;;;;14.20;12.80;;;;;10.95;100.00;97746.75;6141878;28;97548;-72
2023/11/12 06:56:13;;;;;;;;;13.40;12.40;;;;;10.91;100.00;97734.88;6138202;28;98416;-71
2023/11/12 06:59:17;;;;;;;;;14.00;13.00;;;;;10.91;100.00;97743.78;6140836;28;96613;-71
2023/11/12 07:02:25;;;;;;;;;13.80;13.20;;;;;10.94;100.00;97751.38;6138010;28;97037;-71
2023/11/12 07:05:30;;;;;;;;;13.00;13.00;;;;;10.82;100.00;97748.78;6134428;28;97175;-71
2023/11/12 07:08:33;;;;;;;;;16.50;16.00;;;;;10.85;100.00;97747.47;6151802;28;96526;-71
2023/11/12 07:11:37;;;;;;;;;15.00;15.00;;;;;10.89;100.00;97755.88;6150953;28;96586;-71
2023/11/12 07:14:41;;;;;;;;;15.00;14.80;;;;;10.89;100.00;97761.28;6139277;28;97094;-71
2023/11/12 07:17:49;;;;;;;;;21.20;20.60;;;;;10.93;100.00;97757.81;6125257;28;98422;-71
2023/11/12 07:20:52;;;;;;;;;19.50;18.00;;;;;10.96;100.00;97762.69;6142055;28;96869;-72
2023/11/12 07:23:56;;;;;;;;;16.75;16.00;;;;;11.07;100.00;97760.94;6125243;28;97769;-72
2023/11/12 07:26:59;;;;;;;;;17.00;16.00;;;;;11.11;100.00;97756.69;6143235;28;96555;-72
2023/11/12 07:30:03;;;;;;;;;15.00;13.20;;;;;11.07;100.00;97760.94;6139573;28;96908;-71
2023/11/12 07:33:09;;;;;;;;;13.50;13.25;;;;;11.10;100.00;97765.81;6139309;28;97030;-69
2023/11/12 07:36:13;;;;;;;;;15.00;12.25;;;;;11.18;100.00;97768.91;6115488;28;98350;-72
2023/11/12 07:39:17;;;;;;;;;13.00;12.40;;;;;11.20;100.00;97769.47;6120897;28;97803;-72
2023/11/12 07:42:21;;;;;;;;;16.50;15.00;;;;;11.15;100.00;97774.78;6127590;28;96986;-72
2023/11/12 07:45:24;;;;;;;;;15.80;15.20;;;;;11.17;100.00;97769.97;6129680;28;96716;-72
2023/11/12 07:48:41;;;;;;;;;14.80;14.20;;;;;11.14;100.00;97773.16;6118235;28;96784;-71
2023/11/12 07:51:44;;;;;;;;;15.20;15.00;;;;;11.25;100.00;97780.31;6122041;28;96792;-72
2023/11/12 07:54:47;;;;;;;;;11.60;11.20;;;;;11.21;100.00;97775.69;6134099;28;96696;-71
2023/11/12 07:57:51;;;;;;;;;12.00;11.00;;;;;11.26;100.00;97784.66;6109941;28;96824;-70
2023/11/12 08:00:55;;;;;;;;;14.60;14.40;;;;;11.23;100.00;97795.13;6123953;28;96426;-72
2023/11/12 08:03:59;;;;;;;;;14.00;14.00;;;;;11.26;100.00;97789.22;6130906;28;97020;-72
2023/11/12 08:07:03;;;;;;;;;16.50;15.50;;;;;11.27;100.00;97794.38;6124885;28;96876;-72
2023/11/12 08:10:08;;;;;;;;;13.40;13.40;;;;;11.25;100.00;97806.47;6140055;28;97243;-71
2023/11/12 08:13:14;;;;;;;;;14.33;14.00;;;;;11.39;100.00;97805.00;6118790;28;99234;-71
2023/11/12 08:16:17;;;;;;;;;14.80;13.00;;;;;11.47;100.00;97804.56;6119241;28;96626;-71
2023/11/12 08:19:22;;;;;;;;;16.20;16.20;;;;;11.52;100.00;97810.03;6115948;28;97339;-71
2023/11/12 08:22:25;;;;;;;;;16.00;15.50;;;;;11.54;100.00;97807.88;6119156;28;96813;-70
2023/11/12 08:25:29;;;;;;;;;17.00;14.20;;;;;11.57;100.00;97815.50;6135446;28;96924;-71
2023/11/12 08:28:33;;;;;;;;;16.00;15.00;;;;;11.53;100.00;97811.63;6104145;28;98958;-72
2023/11/12 08:31:36;;;;;;;;;18.40;18.00;;;;;11.47;100.00;97819.97;6135278;28;98579;-70
2023/11/12 08:34:41;;;;;;;;;17.80;16.80;;;;;11.49;100.00;97826.72;6138725;28;96698;-70
2023/11/12 08:37:44;;;;;;;;;15.40;15.00;;;;;11.41;100.00;97827.19;6125193;28;97797;-70
2023/11/12 08:40:48;;;;;;;;;18.80;18.80;;;;;11.35;100.00;97830.06;6137984;28;96967;-69
2023/11/12 08:43:51;;;;;;;;;17.60;16.00;;;;;11.24;100.00;97838.03;6121826;28;98490;-70
2023/11/12 08:46:55;;;;;;;;;17.60;17.00;;;;;11.39;100.00;97836.56;6123569;28;97612;-70
2023/11/12 08:49:59;;;;;;;;;16.00;16.00;;;;;11.45;100.00;97835.56;6126908;28;98555;-69
2023/11/12 08:53:03;;;;;;;;;20.40;19.40;;;;;11.46;100.00;97842.59;6117369;28;96709;-70
2023/11/12 08:56:07;;;;;;;;;20.60;20.00;;;;;11.47;100.00;97850.47;6115569;28;97097;-70
2023/11/12 08:59:11;;;;;;;;;18.50;17.50;;;;;11.65;100.00;97858.22;6133648;28;96292;-69
2023/11/12 09:02:14;;;;;;;;;18.00;17.00;;;;;11.67;100.00;97860.66;6116983;28;97026;-70
2023/11/12 09:05:19;;;;;;;;;23.00;21.00;;;;;11.63;100.00;97864.94;6134315;28;97106;-69
2023/11/12 09:08:22;;;;;;;;;21.00;21.00;;;;;11.63;100.00;97864.94;6109749;28;98652;-70
2023/11/12 09:11:26;;;;;;;;;22.60;21.00;;;;;11.65;100.00;97865.50;6120205;28;97203;-69
2023/11/12 09:14:29;;;;;;;;;21.00;19.50;;;;;11.60;100.00;97873.53;6134642;28;96599;-69
2023/11/12 09:17:32;;;;;;;;;18.60;18.00;;;;;11.61;100.00;97876.00;6135966;28;96545;-69
2023/11/12 09:20:37;;;;;;;;;17.75;16.50;;;;;11.58;100.00;97883.78;6092126;28;97347;-70
2023/11/12 09:23:40;;;;;;;;;18.00;17.00;;;;;11.61;100.00;97883.28;6100886;28;96878;-69
2023/11/12 09:26:44;;;;;;;;;21.00;20.00;;;;;11.59;100.00;97890.78;6139005;28;97257;-70
2023/11/12 09:29:48;;;;;;;;;16.25;16.25;;;;;11.58;100.00;97881.09;6138220;28;96673;-70
2023/11/12 09:32:52;;;;;;;;;22.40;20.60;;;;;11.60;100.00;97890.56;6115149;28;96395;-70
2023/11/12 09:35:57;;;;;;;;;18.00;17.33;;;;;11.62;100.00;97890.31;6139140;28;96440;-70
2023/11/12 09:39:01;;;;;;;;;19.00;18.00;;;;;11.60;100.00;97893.25;6103016;28;96751;-71
2023/11/12 09:42:05;;;;;;;;;18.20;17.20;;;;;11.55;100.00;97893.19;6138798;28;96345;-72
2023/11/12 09:45:10;;;;;;;;;20.00;19.00;;;;;11.51;100.00;97902.88;6103380;28;97063;-71
2023/11/12 09:48:26;;;;;;;;;20.50;17.50;;;;;11.61;100.00;97896.78;6128039;28;97620;-72
2023/11/12 09:51:32;;;;;;;;;20.00;19.40;;;;;11.63;100.00;97902.75;6096144;28;97440;-71
2023/11/12 09:54:39;;;;;;;;;19.60;19.00;;;;;11.68;100.00;97900.06;6135372;28;97203;-70
2023/11/12 09:57:44;;;;;;;;;21.60;19.60;;;;;11.80;100.00;97902.69;6115944;28;96410;-70
2023/11/12 10:00:47;;;;;;;;;18.80;18.60;;;;;11.81;100.00;97904.31;6138128;28;97249;-72
2023/11/12 10:03:51;;;;;;;;;20.00;20.00;;;;;11.79;100.00;97898.34;6105771;28;97432;-72
2023/11/12 10:06:57;;;;;;;;;15.00;15.00;;;;;11.69;100.00;97899.84;6103391;28;97815;-71
2023/11/12 10:10:21;;;;;;;;;15.25;14.00;;;;;11.79;100.00;97904.56;6103948;28;96921;-71
2023/11/12 10:13:36;;;;;;;;;18.40;17.00;;;;;11.68;100.00;97908.16;6112671;28;98048;-72
2023/11/12 10:16:39;;;;;;;;;17.60;16.40;;;;;11.58;100.00;97908.88;6111803;28;96392;-71
2023/11/12 10:19:56;;;;;;;;;16.00;15.00;;;;;11.58;100.00;97910.78;6096598;28;98329;-71
2023/11/12 10:23:01;;;;;;;;;16.40;16.00;;;;;11.61;100.00;97910.25;6116892;28;96700;-71
2023/11/12 10:26:11;;;;;;;;;20.00;18.00;;;;;11.64;100.00;97907.88;6111678;28;96566;-72
2023/11/12 10:29:19;;;;;;;;;17.20;17.00;;;;;11.63;100.00;97914.31;6114804;28;96597;-72
2023/11/12 10:32:25;;;;;;;;;19.00;17.00;;;;;11.57;100.00;97909.97;6112668;28;96305;-70
2023/11/12 10:35:30;;;;;;;;;16.60;16.60;;;;;11.60;100.00;97916.72;6107868;28;96553;-71
2023/11/12 10:38:47;;;;;;;;;16.75;15.25;;;;;11.65;100.00;97908.69;6106218;28;97036;-71
2023/11/12 10:41:50;;;;;;;;;21.00;19.00;;;;;11.79;100.00;97917.25;6107801;28;97506;-71
2023/11/12 10:44:56;;;;;;;;;15.00;14.00;;;;;11.90;100.00;97919.81;6113151;28;96380;-72
2023/11/12 10:48:04;;;;;;;;;19.00;18.00;;;;;11.94;100.00;97925.50;6112296;28;98315;-71
2023/11/12 10:51:10;;;;;;;;;14.00;13.20;;;;;12.00;100.00;97924.50;6096096;28;100220;-64
2023/11/12 10:54:15;;;;;;;;;19.40;18.00;;;;;11.96;100.00;97918.00;6112219;28;98620;-64
2023/11/12 10:57:19;;;;;;;;;16.00;15.00;;;;;11.89;100.00;97914.66;6114980;28;96398;-65
2023/11/12 11:00:23;;;;;;;;;19.00;17.60;;;;;11.92;100.00;97927.69;6107135;28;97332;-64
2023/11/12 11:03:28;;;;;;;;;19.60;19.40;;;;;11.87;100.00;97927.63;6126775;28;96606;-64
2023/11/12 11:06:32;;;;;;;;;16.00;16.00;;;;;11.92;100.00;97923.09;6135508;28;96535;-64
2023/11/12 11:09:37;;;;;;;;;14.40;14.40;;;;;11.84;100.00;97928.91;6134666;28;96947;-64
2023/11/12 11:12:41;;;;;;;;;14.00;14.00;;;;;11.94;100.00;97923.63;6137668;28;96873;-65
2023/11/12 11:15:47;;;;;;;;;13.80;13.20;;;;;12.06;100.00;97913.50;6115866;28;96656;-66
2023/11/12 11:18:52;;;;;;;;;17.00;17.00;;;;;12.49;100.00;97927.97;6141602;28;96704;-65
2023/11/12 11:22:24;;;;;;;;;15.00;14.00;;;;;12.88;100.00;97934.78;6131303;28;98717;-64
2023/11/12 11:25:31;;;;;;;;;12.40;12.40;;;;;13.22;100.00;97929.88;6125381;28;96317;-67
2023/11/12 11:28:34;;;;;;;;;14.60;12.60;;;;;13.46;100.00;97924.88;6124328;28;96472;-63
2023/11/12 11:31:39;;;;;;;;;14.60;14.00;;;;;13.92;100.00;97928.59;6131790;28;96687;-64
2023/11/12 11:34:43;;;;;;;;;14.00;13.00;;;;;13.90;100.00;97922.59;6125503;28;96980;-63
2023/11/12 11:38:09;;;;;;;;;13.40;13.40;;;;;13.99;100.00;97923.72;6139498;28;96813;-63
2023/11/12 11:41:14;;;;;;;;;13.80;13.20;;;;;13.87;100.00;97926.69;6126563;28;96680;-64
2023/11/12 11:44:41;;;;;;;;;11.60;11.20;;;;;13.71;100.00;97918.75;6128362;28;96998;-64
2023/11/12 11:48:05;;;;;;;;;11.00;9.00;;;;;13.57;100.00;97926.56;6139117;28;96367;-64
2023/11/12 11:51:45;;;;;;;;;12.00;11.00;;;;;13.42;100.00;97927.28;6106158;28;96323;-65
2023/11/12 11:55:02;;;;;;;;;9.75;9.00;;;;;13.48;100.00;97925.44;6117776;28;96658;-65
2023/11/12 11:58:08;;;;;;;;;9.80;9.80;;;;;13.47;100.00;97922.97;6119691;28;97657;-63
2023/11/12 12:01:12;;;;;;;;;11.00;10.25;;;;;13.36;100.00;97931.03;6125789;28;98960;-72
2023/11/12 12:04:16;;;;;;;;;14.00;14.00;;;;;13.33;100.00;97920.75;6098306;28;98490;-72
2023/11/12 12:07:24;;;;;;;;;13.00;12.00;;;;;13.32;100.00;97927.22;6111257;28;96928;-71
2023/11/12 12:10:28;;;;;;;;;13.00;13.00;;;;;13.37;100.00;97932.69;6117097;28;96455;-72
2023/11/12 12:13:33;;;;;;;;;11.80;11.00;;;;;13.34;100.00;97930.47;6105692;28;97695;-72
2023/11/12 12:16:36;;;;;;;;;11.80;11.00;;;;;13.33;100.00;97923.47;6136439;28;96449;-72
2023/11/12 12:19:40;;;;;;;;;13.00;12.20;;;;;13.42;100.00;97926.47;6137185;28;97902;-72
2023/11/12 12:22:44;;;;;;;;;12.00;12.00;;;;;13.36;100.00;97908.56;6165613;28;96409;-72
2023/11/12 12:25:51;;;;;;;;;13.00;12.00;;;;;13.42;100.00;97924.59;6147410;28;97717;-72
2023/11/12 12:28:56;;;;;;;;;13.60;11.60;;;;;13.48;100.00;97919.19;6165341;28;97038;-72
2023/11/12 12:32:13;;;;;;;;;13.40;13.40;;;;;13.53;100.00;97922.75;6135626;28;96622;-72
2023/11/12 12:35:22;;;;;;;;;11.80;11.80;;;;;13.69;100.00;97921.72;6140223;28;96662;-72
2023/11/12 12:38:25;;;;;;;;;11.00;11.00;;;;;13.87;100.00;97921.25;6107238;28;96431;-72
2023/11/12 12:41:29;;;;;;;;;13.60;13.00;;;;;13.97;100.00;97925.88;6108874;28;96873;-72
2023/11/12 12:44:34;;;;;;;;;12.80;12.80;;;;;14.02;100.00;97928.63;6121444;28;96823;-71
2023/11/12 12:47:39;;;;;;;;;12.00;12.00;;;;;14.03;100.00;97930.22;6121642;28;97335;-71
2023/11/12 12:50:42;;;;;;;;;11.40;10.40;;;;;14.03;100.00;97934.81;6129290;28;96884;-70
2023/11/12 12:53:46;;;;;;;;;12.00;12.00;;;;;13.95;100.00;97935.34;6113274;28;96361;-71
2023/11/12 12:56:50;;;;;;;;;18.00;16.00;;;;;13.87;100.00;97932.09;6126435;28;96340;-71
2023/11/12 12:59:55;;;;;;;;;16.75;15.75;;;;;13.84;100.00;97931.78;6118175;28;96793;-71
2023/11/12 13:02:58;;;;;;;;;13.60;13.60;;;;;13.70;100.00;97922.53;6144204;28;98356;-71
2023/11/12 13:06:07;;;;;;;;;13.67;13.00;;;;;13.73;100.00;97928.22;6135047;28;96588;-72
2023/11/12 13:09:16;;;;;;;;;13.00;13.00;;;;;13.76;100.00;97927.72;6129394;28;97762;-67
2023/11/12 13:12:19;;;;;;;;;13.40;12.40;;;;;13.74;100.00;97937.16;6131307;28;98397;-67
2023/11/12 13:15:25;;;;;;;;;15.00;12.00;;;;;13.73;100.00;97930.94;6136426;28;97099;-66
2023/11/12 13:18:29;;;;;;;;;11.20;11.00;;;;;13.69;100.00;97943.38;6138803;28;96315;-67
2023/11/12 13:21:35;;;;;;;;;10.80;10.20;;;;;13.67;100.00;97947.44;6123867;28;96761;-67
2023/11/12 13:24:55;;;;;;;;;11.00;11.00;;;;;13.63;100.00;97949.88;6137273;28;97383;-67
2023/11/12 13:28:02;;;;;;;;;10.60;9.60;;;;;13.63;100.00;97949.06;6145379;28;96249;-68
2023/11/12 13:31:07;;;;;;;;;12.20;12.00;;;;;13.45;100.00;97953.00;6136429;28;96302;-67
2023/11/12 13:34:11;;;;;;;;;14.67;14.00;;;;;13.42;100.00;97948.13;6144466;28;96696;-67
2023/11/12 13:37:15;;;;;;;;;13.00;12.00;;;;;13.45;100.00;97945.72;6135311;28;97346;-67
2023/11/12 13:40:18;;;;;;;;;12.20;12.00;;;;;13.45;100.00;97956.53;6134344;28;96556;-67
2023/11/12 13:43:22;;;;;;;;;11.00;11.00;;;;;13.45;100.00;97955.72;6127759;28;96425;-68
2023/11/12 13:46:27;;;;;;;;;12.00;11.00;;;;;13.46;100.00;97960.06;6118715;28;99595;-67
2023/11/12 13:49:30;;;;;;;;;12.40;12.40;;;;;13.40;100.00;97961.91;6114375;28;96698;-67
2023/11/12 13:52:34;;;;;;;;;13.60;11.60;;;;;13.37;100.00;97965.16;6122488;28;98059;-67
2023/11/12 13:55:40;;;;;;;;;11.00;10.00;;;;;13.34;100.00;97973.00;6137020;28;96762;-67
2023/11/12 13:58:47;;;;;;;;;12.00;11.00;;;;;13.38;100.00;97972.22;6134626;28;96315;-67
2023/11/12 14:01:52;;;;;;;;;14.00;13.75;;;;;13.33;100.00;97964.06;6104650;28;97131;-67